sensor_id;sensor_type;location;lat;lon;timestamp;temperature;humidity
12746;DHT22;6437;53.686;10.030;2023-04-06T00:00:48;5.20;99.90
12746;DHT22;6437;53.686;10.030;2023-04-06T00:02:50;5.20;99.90
12746;DHT22;6437;53.686;10.030;2023-04-06T00:04:52;5.10;99.90
12746;DHT22;6437;53.686;10.030;2023-04-06T00:06:54;5.10;99.90
12746;DHT22;6437;53.686;10.030;2023-04-06T00:08:59;5.00;99.90
12746;DHT22;6437;53.686;10.030;2023-04-06T00:11:01;5.00;99.90
12746;DHT22;6437;53.686;10.030;2023-04-06T00:13:03;5.00;99.90
12746;DHT22;6437;53.686;10.030;2023-04-06T00:15:06;5.00;99.90
12746;DHT22;6437;53.686;10.030;2023-04-06T00:17:08;5.00;99.90
12746;DHT22;6437;53.686;10.030;2023-04-06T00:19:10;5.00;99.90
12746;DHT22;6437;53.686;10.030;2023-04-06T00:21:12;5.00;99.90
12746;DHT22;6437;53.686;10.030;2023-04-06T00:23:14;5.00;99.90
12746;DHT22;6437;53.686;10.030;2023-04-06T00:25:17;5.00;99.90
12746;DHT22;6437;53.686;10.030;2023-04-06T00:27:20;5.00;99.90
12746;DHT22;6437;53.686;10.030;2023-04-06T00:29:21;5.00;99.90
12746;DHT22;6437;53.686;10.030;2023-04-06T00:31:23;4.90;99.90
12746;DHT22;6437;53.686;10.030;2023-04-06T00:33:25;4.90;99.90
12746;DHT22;6437;53.686;10.030;2023-04-06T00:35:27;4.90;99.90
12746;DHT22;6437;53.686;10.030;2023-04-06T00:37:29;4.90;99.90
12746;DHT22;6437;53.686;10.030;2023-04-06T00:39:31;4.90;99.90
12746;DHT22;6437;53.686;10.030;2023-04-06T00:41:34;4.90;99.90
12746;DHT22;6437;53.686;10.030;2023-04-06T00:43:36;4.90;99.90
12746;DHT22;6437;53.686;10.030;2023-04-06T00:45:39;4.80;99.90
12746;DHT22;6437;53.686;10.030;2023-04-06T00:47:41;4.80;99.90
12746;DHT22;6437;53.686;10.030;2023-04-06T00:49:43;4.80;99.90
12746;DHT22;6437;53.686;10.030;2023-04-06T00:51:45;4.80;99.90
12746;DHT22;6437;53.686;10.030;2023-04-06T00:53:47;4.80;99.90
12746;DHT22;6437;53.686;10.030;2023-04-06T00:55:49;4.80;99.90
12746;DHT22;6437;53.686;10.030;2023-04-06T00:57:52;4.80;99.90
12746;DHT22;6437;53.686;10.030;2023-04-06T00:59:55;4.70;99.90
12746;DHT22;6437;53.686;10.030;2023-04-06T01:01:57;4.70;99.90
12746;DHT22;6437;53.686;10.030;2023-04-06T01:03:59;4.70;99.90
12746;DHT22;6437;53.686;10.030;2023-04-06T01:06:03;4.70;99.90
12746;DHT22;6437;53.686;10.030;2023-04-06T01:08:04;4.70;99.90
12746;DHT22;6437;53.686;10.030;2023-04-06T01:10:06;4.70;99.90
12746;DHT22;6437;53.686;10.030;2023-04-06T01:12:08;4.70;99.90
12746;DHT22;6437;53.686;10.030;2023-04-06T01:14:12;4.60;99.90
12746;DHT22;6437;53.686;10.030;2023-04-06T01:16:14;4.60;99.90
12746;DHT22;6437;53.686;10.030;2023-04-06T01:18:16;4.60;99.90
12746;DHT22;6437;53.686;10.030;2023-04-06T01:20:18;4.60;99.90
12746;DHT22;6437;53.686;10.030;2023-04-06T01:22:21;4.50;99.90
12746;DHT22;6437;53.686;10.030;2023-04-06T01:24:25;4.50;99.90
12746;DHT22;6437;53.686;10.030;2023-04-06T01:26:27;4.50;99.90
12746;DHT22;6437;53.686;10.030;2023-04-06T01:28:29;4.50;99.90
12746;DHT22;6437;53.686;10.030;2023-04-06T01:30:31;4.40;99.90
12746;DHT22;6437;53.686;10.030;2023-04-06T01:32:33;4.40;99.90
12746;DHT22;6437;53.686;10.030;2023-04-06T01:34:35;4.40;99.90
12746;DHT22;6437;53.686;10.030;2023-04-06T01:36:37;4.40;99.90
12746;DHT22;6437;53.686;10.030;2023-04-06T01:38:40;4.40;99.90
12746;DHT22;6437;53.686;10.030;2023-04-06T01:40:42;4.40;99.90
12746;DHT22;6437;53.686;10.030;2023-04-06T01:42:45;4.40;99.90
12746;DHT22;6437;53.686;10.030;2023-04-06T01:44:47;4.30;99.90
12746;DHT22;6437;53.686;10.030;2023-04-06T01:46:49;4.40;99.90
12746;DHT22;6437;53.686;10.030;2023-04-06T01:48:51;4.40;99.90
12746;DHT22;6437;53.686;10.030;2023-04-06T01:50:53;4.40;99.90
12746;DHT22;6437;53.686;10.030;2023-04-06T01:52:56;4.40;99.90
12746;DHT22;6437;53.686;10.030;2023-04-06T01:54:59;4.40;99.90
12746;DHT22;6437;53.686;10.030;2023-04-06T01:57:01;4.40;99.90
12746;DHT22;6437;53.686;10.030;2023-04-06T01:59:02;4.40;99.90
12746;DHT22;6437;53.686;10.030;2023-04-06T02:01:04;4.40;99.90
12746;DHT22;6437;53.686;10.030;2023-04-06T02:03:06;4.40;99.90
12746;DHT22;6437;53.686;10.030;2023-04-06T02:05:08;4.40;99.90
12746;DHT22;6437;53.686;10.030;2023-04-06T02:07:10;4.40;99.90
12746;DHT22;6437;53.686;10.030;2023-04-06T02:09:12;4.40;99.90
12746;DHT22;6437;53.686;10.030;2023-04-06T02:11:15;4.40;99.90
12746;DHT22;6437;53.686;10.030;2023-04-06T02:13:17;4.40;99.90
12746;DHT22;6437;53.686;10.030;2023-04-06T02:15:19;4.40;99.90
12746;DHT22;6437;53.686;10.030;2023-04-06T02:17:21;4.40;99.90
12746;DHT22;6437;53.686;10.030;2023-04-06T02:19:23;4.40;99.90
12746;DHT22;6437;53.686;10.030;2023-04-06T02:21:25;4.40;99.90
12746;DHT22;6437;53.686;10.030;2023-04-06T02:23:26;4.40;99.90
12746;DHT22;6437;53.686;10.030;2023-04-06T02:25:27;4.40;99.90
12746;DHT22;6437;53.686;10.030;2023-04-06T02:27:31;4.30;99.90
12746;DHT22;6437;53.686;10.030;2023-04-06T02:29:32;4.30;99.90
12746;DHT22;6437;53.686;10.030;2023-04-06T02:31:34;4.30;99.90
12746;DHT22;6437;53.686;10.030;2023-04-06T02:33:36;4.30;99.90
12746;DHT22;6437;53.686;10.030;2023-04-06T02:35:38;4.30;99.90
12746;DHT22;6437;53.686;10.030;2023-04-06T02:37:40;4.30;99.90
12746;DHT22;6437;53.686;10.030;2023-04-06T02:39:42;4.30;99.90
12746;DHT22;6437;53.686;10.030;2023-04-06T02:41:44;4.30;99.90
12746;DHT22;6437;53.686;10.030;2023-04-06T02:43:47;4.30;99.90
12746;DHT22;6437;53.686;10.030;2023-04-06T02:45:49;4.20;99.90
12746;DHT22;6437;53.686;10.030;2023-04-06T02:47:51;4.10;99.90
12746;DHT22;6437;53.686;10.030;2023-04-06T02:49:53;4.10;99.90
12746;DHT22;6437;53.686;10.030;2023-04-06T02:51:55;4.10;99.90
12746;DHT22;6437;53.686;10.030;2023-04-06T02:53:57;4.10;99.90
12746;DHT22;6437;53.686;10.030;2023-04-06T02:55:59;4.10;99.90
12746;DHT22;6437;53.686;10.030;2023-04-06T02:58:01;4.10;99.90
12746;DHT22;6437;53.686;10.030;2023-04-06T03:00:06;4.10;99.90
12746;DHT22;6437;53.686;10.030;2023-04-06T03:02:08;4.10;99.90
12746;DHT22;6437;53.686;10.030;2023-04-06T03:04:10;4.10;99.90
12746;DHT22;6437;53.686;10.030;2023-04-06T03:06:12;4.00;99.90
12746;DHT22;6437;53.686;10.030;2023-04-06T03:08:14;4.00;99.90
12746;DHT22;6437;53.686;10.030;2023-04-06T03:10:16;4.00;99.90
12746;DHT22;6437;53.686;10.030;2023-04-06T03:12:18;4.30;99.90
12746;DHT22;6437;53.686;10.030;2023-04-06T03:14:20;4.00;99.90
12746;DHT22;6437;53.686;10.030;2023-04-06T03:16:24;4.00;99.90
12746;DHT22;6437;53.686;10.030;2023-04-06T03:18:26;4.00;99.90
12746;DHT22;6437;53.686;10.030;2023-04-06T03:20:28;4.00;99.90
12746;DHT22;6437;53.686;10.030;2023-04-06T03:22:29;4.00;99.90
12746;DHT22;6437;53.686;10.030;2023-04-06T03:24:31;4.00;99.90
12746;DHT22;6437;53.686;10.030;2023-04-06T03:26:33;4.00;99.90
12746;DHT22;6437;53.686;10.030;2023-04-06T03:28:35;4.00;99.90
12746;DHT22;6437;53.686;10.030;2023-04-06T03:30:37;4.00;99.90
12746;DHT22;6437;53.686;10.030;2023-04-06T03:32:40;3.90;99.90
12746;DHT22;6437;53.686;10.030;2023-04-06T03:34:42;3.90;99.90
12746;DHT22;6437;53.686;10.030;2023-04-06T03:36:44;3.80;99.90
12746;DHT22;6437;53.686;10.030;2023-04-06T03:38:47;3.80;99.90
12746;DHT22;6437;53.686;10.030;2023-04-06T03:40:49;3.80;99.90
12746;DHT22;6437;53.686;10.030;2023-04-06T03:42:51;3.80;99.90
12746;DHT22;6437;53.686;10.030;2023-04-06T03:44:52;3.80;99.90
12746;DHT22;6437;53.686;10.030;2023-04-06T03:46:54;3.80;99.90
12746;DHT22;6437;53.686;10.030;2023-04-06T03:48:58;3.80;99.90
12746;DHT22;6437;53.686;10.030;2023-04-06T03:51:00;3.80;99.90
12746;DHT22;6437;53.686;10.030;2023-04-06T03:53:01;3.80;99.90
12746;DHT22;6437;53.686;10.030;2023-04-06T03:55:05;3.80;99.90
12746;DHT22;6437;53.686;10.030;2023-04-06T03:57:07;3.80;99.90
12746;DHT22;6437;53.686;10.030;2023-04-06T03:59:09;3.80;99.90
12746;DHT22;6437;53.686;10.030;2023-04-06T04:01:10;3.80;99.90
12746;DHT22;6437;53.686;10.030;2023-04-06T04:03:12;3.80;99.90
12746;DHT22;6437;53.686;10.030;2023-04-06T04:05:16;3.80;99.90
12746;DHT22;6437;53.686;10.030;2023-04-06T04:07:17;3.70;99.90
12746;DHT22;6437;53.686;10.030;2023-04-06T04:09:19;3.70;99.90
12746;DHT22;6437;53.686;10.030;2023-04-06T04:11:21;3.70;99.90
12746;DHT22;6437;53.686;10.030;2023-04-06T04:13:23;3.70;99.90
12746;DHT22;6437;53.686;10.030;2023-04-06T04:15:25;3.70;99.90
12746;DHT22;6437;53.686;10.030;2023-04-06T04:17:27;3.70;99.90
12746;DHT22;6437;53.686;10.030;2023-04-06T04:19:29;3.70;99.90
12746;DHT22;6437;53.686;10.030;2023-04-06T04:21:32;3.70;99.90
12746;DHT22;6437;53.686;10.030;2023-04-06T04:23:34;3.70;99.90
12746;DHT22;6437;53.686;10.030;2023-04-06T04:25:36;3.20;99.90
12746;DHT22;6437;53.686;10.030;2023-04-06T04:27:37;3.70;99.90
12746;DHT22;6437;53.686;10.030;2023-04-06T04:29:39;3.70;99.90
12746;DHT22;6437;53.686;10.030;2023-04-06T04:31:41;3.70;99.90
12746;DHT22;6437;53.686;10.030;2023-04-06T04:33:43;3.70;99.90
12746;DHT22;6437;53.686;10.030;2023-04-06T04:35:45;3.70;99.90
12746;DHT22;6437;53.686;10.030;2023-04-06T04:37:48;3.70;99.90
12746;DHT22;6437;53.686;10.030;2023-04-06T04:39:50;3.70;99.90
12746;DHT22;6437;53.686;10.030;2023-04-06T04:41:52;3.60;99.90
12746;DHT22;6437;53.686;10.030;2023-04-06T04:43:55;3.70;99.90
12746;DHT22;6437;53.686;10.030;2023-04-06T04:45:57;3.60;99.90
12746;DHT22;6437;53.686;10.030;2023-04-06T04:47:59;3.70;99.90
12746;DHT22;6437;53.686;10.030;2023-04-06T04:50:01;3.70;99.90
12746;DHT22;6437;53.686;10.030;2023-04-06T04:52:03;3.70;99.90
12746;DHT22;6437;53.686;10.030;2023-04-06T04:54:06;3.70;99.90
12746;DHT22;6437;53.686;10.030;2023-04-06T04:56:08;3.70;99.90
12746;DHT22;6437;53.686;10.030;2023-04-06T04:58:10;3.70;99.90
12746;DHT22;6437;53.686;10.030;2023-04-06T05:00:16;3.70;99.90
12746;DHT22;6437;53.686;10.030;2023-04-06T05:02:18;3.70;99.90
12746;DHT22;6437;53.686;10.030;2023-04-06T05:04:19;3.70;99.90
12746;DHT22;6437;53.686;10.030;2023-04-06T05:06:22;3.70;99.90
12746;DHT22;6437;53.686;10.030;2023-04-06T05:08:24;3.70;99.90
12746;DHT22;6437;53.686;10.030;2023-04-06T05:10:27;3.70;99.90
12746;DHT22;6437;53.686;10.030;2023-04-06T05:12:29;3.40;99.90
12746;DHT22;6437;53.686;10.030;2023-04-06T05:14:31;3.70;99.90
12746;DHT22;6437;53.686;10.030;2023-04-06T05:16:34;3.70;99.90
12746;DHT22;6437;53.686;10.030;2023-04-06T05:18:36;3.70;99.90
12746;DHT22;6437;53.686;10.030;2023-04-06T05:20:38;3.70;99.90
12746;DHT22;6437;53.686;10.030;2023-04-06T05:22:41;3.70;99.90
12746;DHT22;6437;53.686;10.030;2023-04-06T05:24:42;3.70;99.90
12746;DHT22;6437;53.686;10.030;2023-04-06T05:26:46;3.70;99.90
12746;DHT22;6437;53.686;10.030;2023-04-06T05:28:48;3.80;99.90
12746;DHT22;6437;53.686;10.030;2023-04-06T05:30:50;3.70;99.90
12746;DHT22;6437;53.686;10.030;2023-04-06T05:32:52;3.80;99.90
12746;DHT22;6437;53.686;10.030;2023-04-06T05:34:54;3.80;99.90
12746;DHT22;6437;53.686;10.030;2023-04-06T05:36:56;3.80;99.90
12746;DHT22;6437;53.686;10.030;2023-04-06T05:38:58;3.80;99.90
12746;DHT22;6437;53.686;10.030;2023-04-06T05:41:00;3.70;99.90
12746;DHT22;6437;53.686;10.030;2023-04-06T05:43:03;3.70;99.90
12746;DHT22;6437;53.686;10.030;2023-04-06T05:45:06;3.90;99.90
12746;DHT22;6437;53.686;10.030;2023-04-06T05:47:08;3.80;99.90
12746;DHT22;6437;53.686;10.030;2023-04-06T05:49:10;3.80;99.90
12746;DHT22;6437;53.686;10.030;2023-04-06T05:51:13;3.80;99.90
12746;DHT22;6437;53.686;10.030;2023-04-06T05:53:15;3.80;99.90
12746;DHT22;6437;53.686;10.030;2023-04-06T05:55:17;3.80;99.90
12746;DHT22;6437;53.686;10.030;2023-04-06T05:57:18;3.80;99.90
12746;DHT22;6437;53.686;10.030;2023-04-06T05:59:22;3.90;99.90
12746;DHT22;6437;53.686;10.030;2023-04-06T06:01:24;3.90;99.90
12746;DHT22;6437;53.686;10.030;2023-04-06T06:03:26;3.90;99.90
12746;DHT22;6437;53.686;10.030;2023-04-06T06:05:28;4.00;99.90
12746;DHT22;6437;53.686;10.030;2023-04-06T06:07:30;4.00;99.90
12746;DHT22;6437;53.686;10.030;2023-04-06T06:09:35;4.00;99.90
12746;DHT22;6437;53.686;10.030;2023-04-06T06:11:37;4.00;99.90
12746;DHT22;6437;53.686;10.030;2023-04-06T06:13:39;4.10;99.90
12746;DHT22;6437;53.686;10.030;2023-04-06T06:15:42;4.10;99.90
12746;DHT22;6437;53.686;10.030;2023-04-06T06:17:44;4.10;99.90
12746;DHT22;6437;53.686;10.030;2023-04-06T06:19:47;4.20;99.90
12746;DHT22;6437;53.686;10.030;2023-04-06T06:21:49;4.20;99.90
12746;DHT22;6437;53.686;10.030;2023-04-06T06:23:51;4.20;99.90
12746;DHT22;6437;53.686;10.030;2023-04-06T06:25:54;4.20;99.90
12746;DHT22;6437;53.686;10.030;2023-04-06T06:27:58;4.30;99.90
12746;DHT22;6437;53.686;10.030;2023-04-06T06:30:01;4.30;99.90
12746;DHT22;6437;53.686;10.030;2023-04-06T06:32:04;4.30;99.90
12746;DHT22;6437;53.686;10.030;2023-04-06T06:34:06;3.90;99.90
12746;DHT22;6437;53.686;10.030;2023-04-06T06:36:08;4.30;99.90
12746;DHT22;6437;53.686;10.030;2023-04-06T06:38:10;4.40;99.90
12746;DHT22;6437;53.686;10.030;2023-04-06T06:40:12;4.40;99.90
12746;DHT22;6437;53.686;10.030;2023-04-06T06:42:16;4.40;99.90
12746;DHT22;6437;53.686;10.030;2023-04-06T06:44:18;4.50;99.90
12746;DHT22;6437;53.686;10.030;2023-04-06T06:46:20;4.50;99.90
12746;DHT22;6437;53.686;10.030;2023-04-06T06:48:23;4.60;99.90
12746;DHT22;6437;53.686;10.030;2023-04-06T06:50:25;4.60;99.90
12746;DHT22;6437;53.686;10.030;2023-04-06T06:52:27;4.70;99.90
12746;DHT22;6437;53.686;10.030;2023-04-06T06:54:29;4.70;99.90
12746;DHT22;6437;53.686;10.030;2023-04-06T06:56:31;4.80;99.90
12746;DHT22;6437;53.686;10.030;2023-04-06T06:58:33;4.80;99.90
12746;DHT22;6437;53.686;10.030;2023-04-06T07:00:35;4.90;99.90
12746;DHT22;6437;53.686;10.030;2023-04-06T07:02:36;4.90;99.90
12746;DHT22;6437;53.686;10.030;2023-04-06T07:04:40;5.00;99.90
12746;DHT22;6437;53.686;10.030;2023-04-06T07:06:42;5.00;99.90
12746;DHT22;6437;53.686;10.030;2023-04-06T07:08:44;5.10;99.90
12746;DHT22;6437;53.686;10.030;2023-04-06T07:10:45;5.10;99.90
12746;DHT22;6437;53.686;10.030;2023-04-06T07:12:48;5.20;99.90
12746;DHT22;6437;53.686;10.030;2023-04-06T07:14:50;5.20;99.90
12746;DHT22;6437;53.686;10.030;2023-04-06T07:16:52;5.20;99.90
12746;DHT22;6437;53.686;10.030;2023-04-06T07:18:53;5.30;99.90
12746;DHT22;6437;53.686;10.030;2023-04-06T07:20:57;5.20;99.90
12746;DHT22;6437;53.686;10.030;2023-04-06T07:22:59;5.40;99.90
12746;DHT22;6437;53.686;10.030;2023-04-06T07:25:00;5.30;99.90
12746;DHT22;6437;53.686;10.030;2023-04-06T07:27:03;5.50;99.90
12746;DHT22;6437;53.686;10.030;2023-04-06T07:29:05;5.50;99.90
12746;DHT22;6437;53.686;10.030;2023-04-06T07:31:07;5.50;99.90
12746;DHT22;6437;53.686;10.030;2023-04-06T07:33:09;5.70;99.90
12746;DHT22;6437;53.686;10.030;2023-04-06T07:35:11;5.70;99.90
12746;DHT22;6437;53.686;10.030;2023-04-06T07:37:14;5.80;99.90
12746;DHT22;6437;53.686;10.030;2023-04-06T07:39:16;5.80;99.90
12746;DHT22;6437;53.686;10.030;2023-04-06T07:41:18;5.90;99.90
12746;DHT22;6437;53.686;10.030;2023-04-06T07:43:20;5.90;99.90
12746;DHT22;6437;53.686;10.030;2023-04-06T07:45:22;6.00;99.90
12746;DHT22;6437;53.686;10.030;2023-04-06T07:47:24;6.10;99.90
12746;DHT22;6437;53.686;10.030;2023-04-06T07:49:26;6.10;99.90
12746;DHT22;6437;53.686;10.030;2023-04-06T07:51:28;6.20;99.90
12746;DHT22;6437;53.686;10.030;2023-04-06T07:53:32;6.20;99.90
12746;DHT22;6437;53.686;10.030;2023-04-06T07:55:34;6.30;99.90
12746;DHT22;6437;53.686;10.030;2023-04-06T07:57:36;6.40;99.90
12746;DHT22;6437;53.686;10.030;2023-04-06T07:59:38;6.40;99.90
12746;DHT22;6437;53.686;10.030;2023-04-06T08:01:40;6.50;99.90
12746;DHT22;6437;53.686;10.030;2023-04-06T08:03:42;6.50;99.90
12746;DHT22;6437;53.686;10.030;2023-04-06T08:05:44;6.50;99.90
12746;DHT22;6437;53.686;10.030;2023-04-06T08:07:46;6.60;99.90
12746;DHT22;6437;53.686;10.030;2023-04-06T08:09:49;6.60;99.90
12746;DHT22;6437;53.686;10.030;2023-04-06T08:11:51;6.60;99.90
12746;DHT22;6437;53.686;10.030;2023-04-06T08:13:53;6.70;99.90
12746;DHT22;6437;53.686;10.030;2023-04-06T08:15:56;6.80;99.90
12746;DHT22;6437;53.686;10.030;2023-04-06T08:17:58;6.90;99.90
12746;DHT22;6437;53.686;10.030;2023-04-06T08:20:00;6.90;99.90
12746;DHT22;6437;53.686;10.030;2023-04-06T08:22:03;6.90;99.90
12746;DHT22;6437;53.686;10.030;2023-04-06T08:24:06;7.00;99.90
12746;DHT22;6437;53.686;10.030;2023-04-06T08:26:09;7.10;99.90
12746;DHT22;6437;53.686;10.030;2023-04-06T08:28:11;7.10;99.90
12746;DHT22;6437;53.686;10.030;2023-04-06T08:30:16;7.10;99.90
12746;DHT22;6437;53.686;10.030;2023-04-06T08:32:19;7.20;99.90
12746;DHT22;6437;53.686;10.030;2023-04-06T08:34:21;7.20;99.70
12746;DHT22;6437;53.686;10.030;2023-04-06T08:36:23;7.30;99.80
12746;DHT22;6437;53.686;10.030;2023-04-06T08:38:25;7.30;99.40
12746;DHT22;6437;53.686;10.030;2023-04-06T08:40:28;7.40;99.50
12746;DHT22;6437;53.686;10.030;2023-04-06T08:42:32;7.40;99.60
12746;DHT22;6437;53.686;10.030;2023-04-06T08:44:35;7.50;99.40
12746;DHT22;6437;53.686;10.030;2023-04-06T08:46:38;7.50;99.30
12746;DHT22;6437;53.686;10.030;2023-04-06T08:48:41;7.60;99.00
12746;DHT22;6437;53.686;10.030;2023-04-06T08:50:43;7.60;99.10
12746;DHT22;6437;53.686;10.030;2023-04-06T08:52:47;7.70;98.90
12746;DHT22;6437;53.686;10.030;2023-04-06T08:54:49;7.80;98.70
12746;DHT22;6437;53.686;10.030;2023-04-06T08:56:52;7.80;98.30
12746;DHT22;6437;53.686;10.030;2023-04-06T08:58:56;7.80;98.30
12746;DHT22;6437;53.686;10.030;2023-04-06T09:00:59;7.90;98.40
12746;DHT22;6437;53.686;10.030;2023-04-06T09:03:01;8.00;98.50
12746;DHT22;6437;53.686;10.030;2023-04-06T09:05:05;8.00;97.90
12746;DHT22;6437;53.686;10.030;2023-04-06T09:07:07;8.00;97.80
12746;DHT22;6437;53.686;10.030;2023-04-06T09:09:09;8.10;97.80
12746;DHT22;6437;53.686;10.030;2023-04-06T09:11:12;8.10;97.90
12746;DHT22;6437;53.686;10.030;2023-04-06T09:13:14;8.10;97.70
12746;DHT22;6437;53.686;10.030;2023-04-06T09:15:21;8.20;97.30
12746;DHT22;6437;53.686;10.030;2023-04-06T09:17:24;8.20;97.30
12746;DHT22;6437;53.686;10.030;2023-04-06T09:19:26;8.20;97.30
12746;DHT22;6437;53.686;10.030;2023-04-06T09:21:28;8.30;97.10
12746;DHT22;6437;53.686;10.030;2023-04-06T09:23:31;8.30;96.60
12746;DHT22;6437;53.686;10.030;2023-04-06T09:25:33;8.40;96.50
12746;DHT22;6437;53.686;10.030;2023-04-06T09:27:37;8.40;96.10
12746;DHT22;6437;53.686;10.030;2023-04-06T09:29:39;8.30;96.60
12746;DHT22;6437;53.686;10.030;2023-04-06T09:31:43;8.40;95.80
12746;DHT22;6437;53.686;10.030;2023-04-06T09:33:45;8.40;95.30
12746;DHT22;6437;53.686;10.030;2023-04-06T09:35:49;8.40;95.30
12746;DHT22;6437;53.686;10.030;2023-04-06T09:37:52;8.50;95.20
12746;DHT22;6437;53.686;10.030;2023-04-06T09:40:02;8.50;95.40
12746;DHT22;6437;53.686;10.030;2023-04-06T09:42:04;8.60;94.80
12746;DHT22;6437;53.686;10.030;2023-04-06T09:44:07;8.60;94.60
12746;DHT22;6437;53.686;10.030;2023-04-06T09:46:10;8.60;94.50
12746;DHT22;6437;53.686;10.030;2023-04-06T09:48:13;8.80;94.30
12746;DHT22;6437;53.686;10.030;2023-04-06T09:50:15;8.70;94.40
12746;DHT22;6437;53.686;10.030;2023-04-06T09:52:18;8.70;94.50
12746;DHT22;6437;53.686;10.030;2023-04-06T09:54:22;8.80;94.30
12746;DHT22;6437;53.686;10.030;2023-04-06T09:56:28;8.80;94.10
12746;DHT22;6437;53.686;10.030;2023-04-06T09:58:34;8.90;94.50
12746;DHT22;6437;53.686;10.030;2023-04-06T10:00:43;8.90;93.90
12746;DHT22;6437;53.686;10.030;2023-04-06T10:02:51;9.00;94.30
12746;DHT22;6437;53.686;10.030;2023-04-06T10:05:02;8.90;93.80
12746;DHT22;6437;53.686;10.030;2023-04-06T10:07:06;9.00;93.80
12746;DHT22;6437;53.686;10.030;2023-04-06T10:09:09;9.00;93.50
12746;DHT22;6437;53.686;10.030;2023-04-06T10:11:11;9.00;93.60
12746;DHT22;6437;53.686;10.030;2023-04-06T10:13:14;9.10;94.40
12746;DHT22;6437;53.686;10.030;2023-04-06T10:15:17;9.10;93.80
12746;DHT22;6437;53.686;10.030;2023-04-06T10:17:19;9.10;93.90
12746;DHT22;6437;53.686;10.030;2023-04-06T10:19:24;9.10;93.80
12746;DHT22;6437;53.686;10.030;2023-04-06T10:21:29;9.20;94.10
12746;DHT22;6437;53.686;10.030;2023-04-06T10:23:35;9.30;94.40
12746;DHT22;6437;53.686;10.030;2023-04-06T10:25:37;9.30;94.70
12746;DHT22;6437;53.686;10.030;2023-04-06T10:27:39;9.40;94.90
12746;DHT22;6437;53.686;10.030;2023-04-06T10:29:43;9.50;95.30
12746;DHT22;6437;53.686;10.030;2023-04-06T10:31:49;9.50;95.50
12746;DHT22;6437;53.686;10.030;2023-04-06T10:33:54;9.60;94.90
12746;DHT22;6437;53.686;10.030;2023-04-06T10:35:56;9.60;94.90
12746;DHT22;6437;53.686;10.030;2023-04-06T10:38:02;9.70;94.30
12746;DHT22;6437;53.686;10.030;2023-04-06T10:40:06;9.80;94.60
12746;DHT22;6437;53.686;10.030;2023-04-06T10:42:08;9.80;94.60
12746;DHT22;6437;53.686;10.030;2023-04-06T10:44:17;9.80;94.30
12746;DHT22;6437;53.686;10.030;2023-04-06T10:46:25;9.90;94.00
12746;DHT22;6437;53.686;10.030;2023-04-06T10:48:37;10.00;93.30
12746;DHT22;6437;53.686;10.030;2023-04-06T10:50:39;10.00;93.20
12746;DHT22;6437;53.686;10.030;2023-04-06T10:52:41;10.00;92.70
12746;DHT22;6437;53.686;10.030;2023-04-06T10:54:45;10.00;92.70
12746;DHT22;6437;53.686;10.030;2023-04-06T10:56:49;10.10;93.20
12746;DHT22;6437;53.686;10.030;2023-04-06T10:58:53;10.10;93.40
12746;DHT22;6437;53.686;10.030;2023-04-06T11:00:56;10.20;93.10
12746;DHT22;6437;53.686;10.030;2023-04-06T11:02:59;10.30;94.40
12746;DHT22;6437;53.686;10.030;2023-04-06T11:05:01;10.30;94.00
12746;DHT22;6437;53.686;10.030;2023-04-06T11:07:03;10.30;92.80
12746;DHT22;6437;53.686;10.030;2023-04-06T11:09:05;10.40;92.80
12746;DHT22;6437;53.686;10.030;2023-04-06T11:11:10;10.50;92.80
12746;DHT22;6437;53.686;10.030;2023-04-06T11:13:15;10.60;92.70
12746;DHT22;6437;53.686;10.030;2023-04-06T11:15:17;10.60;92.40
12746;DHT22;6437;53.686;10.030;2023-04-06T11:17:25;10.60;92.10
12746;DHT22;6437;53.686;10.030;2023-04-06T11:19:27;10.60;92.20
12746;DHT22;6437;53.686;10.030;2023-04-06T11:21:34;10.60;92.10
12746;DHT22;6437;53.686;10.030;2023-04-06T11:23:37;10.70;91.90
12746;DHT22;6437;53.686;10.030;2023-04-06T11:25:39;10.70;91.70
12746;DHT22;6437;53.686;10.030;2023-04-06T11:27:42;10.80;92.10
12746;DHT22;6437;53.686;10.030;2023-04-06T11:29:45;10.90;92.90
12746;DHT22;6437;53.686;10.030;2023-04-06T11:31:48;10.90;92.00
12746;DHT22;6437;53.686;10.030;2023-04-06T11:33:55;11.00;91.40
12746;DHT22;6437;53.686;10.030;2023-04-06T11:35:57;11.00;91.40
12746;DHT22;6437;53.686;10.030;2023-04-06T11:38:02;11.00;91.30
12746;DHT22;6437;53.686;10.030;2023-04-06T11:40:08;11.10;91.50
12746;DHT22;6437;53.686;10.030;2023-04-06T11:42:10;11.10;91.70
12746;DHT22;6437;53.686;10.030;2023-04-06T11:44:14;11.20;91.30
12746;DHT22;6437;53.686;10.030;2023-04-06T11:46:18;11.20;91.80
12746;DHT22;6437;53.686;10.030;2023-04-06T11:48:20;11.50;91.50
12746;DHT22;6437;53.686;10.030;2023-04-06T11:50:23;11.50;91.90
12746;DHT22;6437;53.686;10.030;2023-04-06T11:52:26;11.50;92.00
12746;DHT22;6437;53.686;10.030;2023-04-06T11:54:32;11.50;91.30
12746;DHT22;6437;53.686;10.030;2023-04-06T11:56:34;11.50;91.10
12746;DHT22;6437;53.686;10.030;2023-04-06T11:58:37;11.50;91.00
12746;DHT22;6437;53.686;10.030;2023-04-06T12:00:43;11.60;91.00
12746;DHT22;6437;53.686;10.030;2023-04-06T12:02:47;11.60;90.60
12746;DHT22;6437;53.686;10.030;2023-04-06T12:04:49;11.60;90.90
12746;DHT22;6437;53.686;10.030;2023-04-06T12:06:51;11.70;91.50
12746;DHT22;6437;53.686;10.030;2023-04-06T12:08:53;11.80;91.50
12746;DHT22;6437;53.686;10.030;2023-04-06T12:10:54;11.90;91.00
12746;DHT22;6437;53.686;10.030;2023-04-06T12:12:56;11.90;90.30
12746;DHT22;6437;53.686;10.030;2023-04-06T12:14:58;12.00;90.60
12746;DHT22;6437;53.686;10.030;2023-04-06T12:17:02;12.00;90.40
12746;DHT22;6437;53.686;10.030;2023-04-06T12:19:04;12.10;90.20
12746;DHT22;6437;53.686;10.030;2023-04-06T12:21:06;12.10;90.50
12746;DHT22;6437;53.686;10.030;2023-04-06T12:23:08;12.20;90.50
12746;DHT22;6437;53.686;10.030;2023-04-06T12:25:10;12.20;90.00
12746;DHT22;6437;53.686;10.030;2023-04-06T12:27:12;12.20;88.60
12746;DHT22;6437;53.686;10.030;2023-04-06T12:29:14;12.30;89.80
12746;DHT22;6437;53.686;10.030;2023-04-06T12:31:16;12.30;89.80
12746;DHT22;6437;53.686;10.030;2023-04-06T12:33:19;12.20;89.60
12746;DHT22;6437;53.686;10.030;2023-04-06T12:35:21;12.30;90.20
12746;DHT22;6437;53.686;10.030;2023-04-06T12:37:23;12.40;90.10
12746;DHT22;6437;53.686;10.030;2023-04-06T12:39:27;12.50;88.90
12746;DHT22;6437;53.686;10.030;2023-04-06T12:41:29;12.50;88.70
12746;DHT22;6437;53.686;10.030;2023-04-06T12:43:31;12.60;88.60
12746;DHT22;6437;53.686;10.030;2023-04-06T12:45:33;12.60;89.30
12746;DHT22;6437;53.686;10.030;2023-04-06T12:47:35;12.70;88.40
12746;DHT22;6437;53.686;10.030;2023-04-06T12:49:39;12.70;86.70
12746;DHT22;6437;53.686;10.030;2023-04-06T12:51:42;12.80;87.80
12746;DHT22;6437;53.686;10.030;2023-04-06T12:53:43;12.80;88.80
12746;DHT22;6437;53.686;10.030;2023-04-06T12:55:45;12.80;88.60
12746;DHT22;6437;53.686;10.030;2023-04-06T12:57:47;12.90;89.20
12746;DHT22;6437;53.686;10.030;2023-04-06T12:59:49;13.00;88.30
12746;DHT22;6437;53.686;10.030;2023-04-06T13:01:51;13.00;88.20
12746;DHT22;6437;53.686;10.030;2023-04-06T13:03:53;13.00;87.40